Time;durP1;ratioP1;P1;durP2;ratioP2;P2;SDS_P1;SDS_P2;PMS_P1;PMS_P2;Temp;Humidity;BMP_temperature;BMP_pressure;BME280_temperature;BME280_humidity;BME280_pressure;Samples;Min_cycle;Max_cycle;Signal;HPM_P1;HPM_P2
2021/04/05 00:01:11;;;;;;;11.90;5.63;;;5.10;99.90;;;;;;5169716;28;20192;-74
2021/04/05 00:03:42;;;;;;;10.93;6.13;;;5.10;99.90;;;;;;5169575;28;20200;-72
2021/04/05 00:06:14;;;;;;;16.50;6.23;;;5.10;99.90;;;;;;5152642;28;20556;-75
2021/04/05 00:08:45;;;;;;;12.03;6.03;;;5.10;99.90;;;;;;5169471;28;20198;-72
2021/04/05 00:11:18;;;;;;;14.27;6.57;;;5.10;99.90;;;;;;5168215;28;20200;-73
2021/04/05 00:13:50;;;;;;;12.43;6.30;;;5.10;99.90;;;;;;5169717;28;20200;-76
2021/04/05 00:16:21;;;;;;;14.47;6.63;;;5.20;99.90;;;;;;5169346;28;20287;-72
2021/04/05 00:18:53;;;;;;;14.03;6.73;;;5.20;99.90;;;;;;5169534;28;20188;-75
2021/04/05 00:21:25;;;;;;;15.87;6.97;;;5.10;99.90;;;;;;5169674;28;20676;-76
2021/04/05 00:23:57;;;;;;;16.53;6.97;;;5.10;99.90;;;;;;5169173;28;20198;-72
2021/04/05 00:26:28;;;;;;;12.90;6.70;;;5.10;99.90;;;;;;5169262;28;20206;-74
2021/04/05 00:28:59;;;;;;;11.37;6.53;;;5.10;99.90;;;;;;5169431;28;20565;-74
2021/04/05 00:31:31;;;;;;;13.93;6.30;;;5.00;99.90;;;;;;5169710;28;20556;-76
2021/04/05 00:34:02;;;;;;;17.07;7.00;;;5.00;99.90;;;;;;5170304;28;20188;-75
2021/04/05 00:36:34;;;;;;;17.00;6.30;;;4.90;99.90;;;;;;5171247;28;20223;-74
2021/04/05 00:39:06;;;;;;;12.27;6.53;;;4.80;99.90;;;;;;5170676;28;20188;-73
2021/04/05 00:41:38;;;;;;;14.20;6.93;;;4.80;99.90;;;;;;5169426;28;20203;-73
2021/04/05 00:44:09;;;;;;;12.57;6.80;;;4.70;99.90;;;;;;5169351;28;20203;-74
2021/04/05 00:46:41;;;;;;;13.27;5.80;;;4.60;99.90;;;;;;5168938;28;20602;-74
2021/04/05 00:49:12;;;;;;;10.80;5.77;;;4.60;99.90;;;;;;5168949;28;20256;-77
2021/04/05 00:51:44;;;;;;;12.60;6.03;;;4.60;99.90;;;;;;5169034;28;20558;-72
2021/04/05 00:54:17;;;;;;;14.33;6.43;;;4.60;99.90;;;;;;5168544;28;20204;-72
2021/04/05 00:56:48;;;;;;;10.43;5.80;;;4.50;99.90;;;;;;5151311;28;20204;-73
2021/04/05 00:59:19;;;;;;;10.33;5.80;;;4.50;99.90;;;;;;5169081;28;20195;-72
2021/04/05 01:01:51;;;;;;;12.97;6.00;;;4.50;99.90;;;;;;5168768;28;20202;-73
2021/04/05 01:04:22;;;;;;;11.67;6.43;;;4.40;99.90;;;;;;5168823;28;20654;-73
2021/04/05 01:06:54;;;;;;;11.50;6.23;;;4.40;99.90;;;;;;5167617;28;20192;-72
2021/04/05 01:09:25;;;;;;;14.67;6.17;;;4.40;99.90;;;;;;5168643;28;20554;-73
2021/04/05 01:11:56;;;;;;;12.10;5.67;;;4.40;99.90;;;;;;5168728;28;20196;-72
2021/04/05 01:14:28;;;;;;;12.90;6.07;;;4.30;99.90;;;;;;5168296;28;20195;-74
2021/04/05 01:16:59;;;;;;;13.67;5.37;;;4.30;99.90;;;;;;5168550;28;20552;-72
2021/04/05 01:19:30;;;;;;;10.27;5.77;;;4.30;99.90;;;;;;5168521;28;20535;-75
2021/04/05 01:22:02;;;;;;;12.33;6.30;;;4.30;99.90;;;;;;5168476;28;20571;-74
2021/04/05 01:24:34;;;;;;;9.17;5.37;;;4.30;99.90;;;;;;5168110;28;20199;-73
2021/04/05 01:27:06;;;;;;;10.60;5.27;;;4.30;99.90;;;;;;5166854;28;20199;-73
2021/04/05 01:29:38;;;;;;;13.80;6.23;;;4.40;99.90;;;;;;5168121;28;20216;-73
2021/04/05 01:32:10;;;;;;;10.27;5.17;;;4.40;99.90;;;;;;5168333;28;20565;-75
2021/04/05 01:34:42;;;;;;;8.80;5.40;;;4.40;99.90;;;;;;5168408;28;20593;-76
2021/04/05 01:37:13;;;;;;;14.83;5.67;;;4.50;99.90;;;;;;5168243;28;20210;-73
2021/04/05 01:39:44;;;;;;;10.67;5.27;;;4.50;99.90;;;;;;5167930;28;20210;-74
2021/04/05 01:42:16;;;;;;;10.77;5.10;;;4.50;99.90;;;;;;5167920;28;20188;-75
2021/04/05 01:44:48;;;;;;;11.07;5.17;;;4.50;99.90;;;;;;5166709;28;20195;-73
2021/04/05 01:47:19;;;;;;;11.20;5.60;;;4.60;99.90;;;;;;5167601;28;20575;-72
2021/04/05 01:49:51;;;;;;;10.80;5.60;;;4.60;99.90;;;;;;5150175;28;20302;-72
2021/04/05 01:52:25;;;;;;;11.90;4.97;;;4.50;99.90;;;;;;5167651;28;20195;-72
2021/04/05 01:55:00;;;;;;;12.80;4.83;;;4.50;99.90;;;;;;5167625;28;20196;-72
2021/04/05 01:57:32;;;;;;;9.83;4.70;;;4.50;99.90;;;;;;5167335;28;20217;-71
2021/04/05 02:00:13;;;;;;;14.13;5.17;;;4.50;99.90;;;;;;5167773;28;20538;-71
2021/04/05 02:02:45;;;;;;;7.90;4.90;;;4.50;99.90;;;;;;5167368;28;20207;-72
2021/04/05 02:05:17;;;;;;;9.47;5.20;;;4.40;99.90;;;;;;5167763;28;20195;-73
2021/04/05 02:07:50;;;;;;;10.30;4.30;;;4.40;99.90;;;;;;5168121;28;20264;-72
2021/04/05 02:10:25;;;;;;;9.80;4.43;;;4.40;99.90;;;;;;5169324;28;20224;-75
2021/04/05 02:12:57;;;;;;;9.97;5.40;;;4.40;99.90;;;;;;5168071;28;20195;-74
2021/04/05 02:15:31;;;;;;;13.30;4.73;;;4.40;99.90;;;;;;5169567;28;20199;-74
2021/04/05 02:18:04;;;;;;;10.13;4.83;;;4.40;99.90;;;;;;5168439;28;20201;-72
2021/04/05 02:20:35;;;;;;;10.00;4.47;;;4.40;99.90;;;;;;5167398;28;20210;-76
2021/04/05 02:23:07;;;;;;;11.50;4.93;;;4.40;99.90;;;;;;5167446;28;20191;-74
2021/04/05 02:26:06;;;;;;;8.43;4.90;;;4.40;99.90;;;;;;5150198;28;20206;-75
2021/04/05 02:28:31;;;;;;;11.93;4.93;;;4.40;99.90;;;;;;5166866;28;20200;-74
2021/04/05 02:31:05;;;;;;;8.77;4.37;;;4.50;99.90;;;;;;5166833;28;20219;-76
2021/04/05 02:33:48;;;;;;;9.10;4.40;;;4.50;99.90;;;;;;5166842;28;20192;-73
2021/04/05 02:36:22;;;;;;;12.70;4.93;;;4.50;99.90;;;;;;5149753;28;20200;-74
2021/04/05 02:38:57;;;;;;;9.57;4.77;;;4.50;99.90;;;;;;5167330;28;20236;-74
2021/04/05 02:41:30;;;;;;;12.87;5.23;;;4.50;99.90;;;;;;5167017;28;20681;-74
2021/04/05 02:47:51;;;;;;;10.10;4.60;;;4.50;99.90;;;;;;5166597;28;20293;-74
2021/04/05 02:50:27;;;;;;;11.47;5.13;;;4.50;99.90;;;;;;5149478;28;20297;-73
2021/04/05 02:53:03;;;;;;;11.90;5.50;;;4.50;99.90;;;;;;5166713;28;20191;-74
2021/04/05 02:55:35;;;;;;;12.83;4.90;;;4.50;99.90;;;;;;5167237;28;20569;-73
2021/04/05 02:58:07;;;;;;;9.40;5.13;;;4.50;99.90;;;;;;5166689;28;20203;-73
2021/04/05 03:00:39;;;;;;;9.87;5.83;;;4.50;99.90;;;;;;5166864;28;20219;-74
2021/04/05 03:03:11;;;;;;;9.47;5.70;;;4.50;99.90;;;;;;5167220;28;20211;-75
2021/04/05 03:05:43;;;;;;;12.27;5.60;;;4.50;99.90;;;;;;5167324;28;20196;-73
2021/04/05 03:08:16;;;;;;;12.90;6.33;;;4.50;99.90;;;;;;5166875;28;20202;-76
2021/04/05 03:10:47;;;;;;;11.90;6.03;;;4.50;99.90;;;;;;5166635;28;20219;-76
2021/04/05 03:13:19;;;;;;;15.73;7.03;;;4.50;99.90;;;;;;5167037;28;20192;-76
2021/04/05 03:15:54;;;;;;;15.93;6.97;;;4.50;99.90;;;;;;5166884;28;20199;-74
2021/04/05 03:18:27;;;;;;;12.03;6.80;;;4.50;99.90;;;;;;5166779;28;20195;-74
2021/04/05 03:21:03;;;;;;;15.17;7.40;;;4.50;99.90;;;;;;5166410;28;20196;-76
2021/04/05 03:23:35;;;;;;;14.87;7.03;;;4.50;99.90;;;;;;5166891;28;20222;-76
2021/04/05 03:26:07;;;;;;;13.73;6.93;;;4.50;99.90;;;;;;5166642;28;20199;-74
2021/04/05 03:28:39;;;;;;;15.00;6.60;;;4.50;99.90;;;;;;5166670;28;20203;-75
2021/04/05 03:31:15;;;;;;;15.57;7.13;;;4.50;99.90;;;;;;5153648;28;20678;-72
2021/04/05 03:34:05;;;;;;;21.03;7.63;;;4.50;99.90;;;;;;5174309;28;20664;-73
2021/04/05 03:36:45;;;;;;;15.20;7.70;;;4.50;99.90;;;;;;5173615;28;20665;-75
2021/04/05 03:39:17;;;;;;;14.30;7.83;;;4.50;99.90;;;;;;5171252;28;20641;-75
2021/04/05 03:42:16;;;;;;;14.47;7.57;;;4.50;99.90;;;;;;5170558;28;20198;-74
2021/04/05 03:48:56;;;;;;;13.20;6.87;;;4.40;99.90;;;;;;5171054;28;20226;-73
2021/04/05 03:51:44;;;;;;;12.57;6.87;;;4.40;99.90;;;;;;5170933;28;20231;-74
2021/04/05 03:54:20;;;;;;;14.23;6.87;;;4.40;99.90;;;;;;5171654;28;20196;-76
2021/04/05 03:56:53;;;;;;;14.07;7.10;;;4.40;99.90;;;;;;5171629;28;20199;-75
2021/04/05 04:03:29;;;;;;;15.23;7.60;;;4.30;99.90;;;;;;5170888;28;20177;-71
2021/04/05 04:06:04;;;;;;;19.50;7.60;;;4.30;99.90;;;;;;5171687;28;20630;-72
2021/04/05 04:08:41;;;;;;;16.00;8.43;;;4.30;99.90;;;;;;5171114;28;20192;-75
2021/04/05 04:11:18;;;;;;;18.57;8.20;;;4.30;99.90;;;;;;5170526;28;20222;-72
2021/04/05 04:13:52;;;;;;;18.93;7.87;;;4.30;99.90;;;;;;5169464;28;20204;-74
2021/04/05 04:20:20;;;;;;;17.17;8.00;;;4.30;99.90;;;;;;5169603;28;20205;-73
2021/04/05 04:22:54;;;;;;;18.77;8.63;;;4.20;99.90;;;;;;5170142;28;20521;-74
2021/04/05 04:25:26;;;;;;;18.73;7.90;;;4.20;99.90;;;;;;5169371;28;20282;-72
2021/04/05 04:27:57;;;;;;;16.73;7.77;;;4.20;99.90;;;;;;5169455;28;20643;-75
2021/04/05 04:30:32;;;;;;;16.83;8.40;;;4.20;99.90;;;;;;5169316;28;20652;-71
2021/04/05 04:33:10;;;;;;;20.53;7.60;;;4.20;99.90;;;;;;5169356;28;20214;-71
2021/04/05 04:35:46;;;;;;;18.63;8.00;;;4.20;99.90;;;;;;5169060;28;20195;-71
2021/04/05 04:38:23;;;;;;;16.87;7.57;;;4.20;99.90;;;;;;5169174;28;20195;-73
2021/04/05 04:40:55;;;;;;;18.60;8.10;;;4.20;99.90;;;;;;5168695;28;20199;-73
2021/04/05 04:43:27;;;;;;;17.10;7.90;;;4.20;99.90;;;;;;5168900;28;20198;-72
2021/04/05 04:46:00;;;;;;;18.20;8.13;;;4.20;99.90;;;;;;5168973;28;20290;-71
2021/04/05 04:48:31;;;;;;;14.63;7.17;;;4.30;99.90;;;;;;5169045;28;20239;-73
2021/04/05 04:51:03;;;;;;;13.97;7.40;;;4.30;99.90;;;;;;5168975;28;20215;-71
2021/04/05 04:53:35;;;;;;;12.90;7.33;;;4.30;99.90;;;;;;5168814;28;20200;-74
2021/04/05 04:56:06;;;;;;;17.73;7.70;;;4.30;99.90;;;;;;5168597;28;20203;-72
2021/04/05 04:58:38;;;;;;;18.93;7.27;;;4.30;99.90;;;;;;5167773;28;20218;-73
2021/04/05 05:01:11;;;;;;;12.53;7.07;;;4.30;99.90;;;;;;5168787;28;20562;-72
2021/04/05 05:03:49;;;;;;;20.63;7.73;;;4.30;99.90;;;;;;5168858;28;20191;-73
2021/04/05 05:06:23;;;;;;;18.10;7.40;;;4.30;99.90;;;;;;5168453;28;20199;-72
2021/04/05 05:08:57;;;;;;;14.20;7.47;;;4.30;99.90;;;;;;5168486;28;20246;-74
2021/04/05 05:11:28;;;;;;;16.70;7.57;;;4.30;99.90;;;;;;5168616;28;20620;-72
2021/04/05 05:14:00;;;;;;;14.33;7.17;;;4.30;99.90;;;;;;5168399;28;20196;-72
2021/04/05 05:16:31;;;;;;;15.03;6.83;;;4.40;99.90;;;;;;5168211;28;20207;-73
2021/04/05 05:19:04;;;;;;;17.40;7.37;;;4.40;99.90;;;;;;5168226;28;20188;-72
2021/04/05 05:21:46;;;;;;;17.50;8.13;;;4.30;99.90;;;;;;5168152;28;20204;-72
2021/04/05 05:24:21;;;;;;;19.60;8.37;;;4.40;99.90;;;;;;5168440;28;20191;-72
2021/04/05 05:26:54;;;;;;;18.20;8.17;;;4.40;99.90;;;;;;5168014;28;20191;-74
2021/04/05 05:29:27;;;;;;;17.87;8.60;;;4.40;99.90;;;;;;5167952;28;20302;-72
2021/04/05 05:31:59;;;;;;;17.70;7.50;;;4.40;99.90;;;;;;5168287;28;20204;-72
2021/04/05 05:34:31;;;;;;;21.20;8.60;;;4.40;99.90;;;;;;5168240;28;20246;-72
2021/04/05 05:37:03;;;;;;;17.93;8.07;;;4.40;99.90;;;;;;5167972;28;20203;-71
2021/04/05 05:39:34;;;;;;;19.43;8.53;;;4.40;99.90;;;;;;5168456;28;20631;-71
2021/04/05 05:42:24;;;;;;;15.83;8.33;;;4.40;99.90;;;;;;5168180;28;20262;-72
2021/04/05 05:49:09;;;;;;;15.33;8.03;;;4.40;99.90;;;;;;5167186;28;20592;-71
2021/04/05 05:51:56;;;;;;;17.40;8.00;;;4.40;99.90;;;;;;5167219;28;20223;-76
2021/04/05 05:55:01;;;;;;;15.10;8.03;;;4.40;99.90;;;;;;5150342;28;20283;-71
2021/04/05 05:58:00;;;;;;;18.13;8.37;;;4.40;99.90;;;;;;5167899;28;20199;-72
2021/04/05 06:04:57;;;;;;;19.73;9.10;;;4.50;99.90;;;;;;5167418;28;20198;-72
2021/04/05 06:07:54;;;;;;;19.70;9.93;;;4.50;99.90;;;;;;5167448;28;20191;-74
2021/04/05 06:10:47;;;;;;;20.70;9.40;;;4.50;99.90;;;;;;5167350;28;20223;-71
2021/04/05 06:13:40;;;;;;;21.23;9.97;;;4.50;99.90;;;;;;5151492;28;20588;-72
2021/04/05 06:16:21;;;;;;;20.83;10.33;;;4.50;99.90;;;;;;5167306;28;20540;-73
2021/04/05 06:19:13;;;;;;;20.27;9.77;;;4.50;99.90;;;;;;5167514;28;20211;-77
2021/04/05 06:21:58;;;;;;;21.97;10.43;;;4.50;99.90;;;;;;5167016;28;20196;-74
2021/04/05 06:24:55;;;;;;;21.80;10.60;;;4.50;99.90;;;;;;5167183;28;20203;-75
2021/04/05 06:27:41;;;;;;;20.40;10.80;;;4.60;99.90;;;;;;5167574;28;20196;-75
2021/04/05 06:34:14;;;;;;;21.50;11.40;;;4.60;99.90;;;;;;5168287;28;20196;-77
2021/04/05 06:37:00;;;;;;;21.90;10.87;;;4.70;99.90;;;;;;5170506;28;20203;-77
2021/04/05 06:39:39;;;;;;;25.10;11.73;;;4.80;99.90;;;;;;5171969;28;20195;-77
2021/04/05 06:42:17;;;;;;;22.93;12.27;;;4.80;99.90;;;;;;5170032;28;20608;-73
2021/04/05 06:49:35;;;;;;;23.17;12.43;;;4.90;99.90;;;;;;5123325;29;20280;-74
2021/04/05 06:52:19;;;;;;;25.70;11.63;;;4.90;99.90;;;;;;5126107;29;20667;-71
2021/04/05 06:54:56;;;;;;;29.80;13.20;;;4.90;99.90;;;;;;5124781;28;20197;-71
2021/04/05 06:57:33;;;;;;;26.57;12.83;;;4.90;99.90;;;;;;5124566;29;20208;-71
2021/04/05 07:00:18;;;;;;;23.57;12.60;;;4.90;99.90;;;;;;5124562;29;20207;-73
2021/04/05 07:06:57;;;;;;;27.97;11.93;;;4.90;99.90;;;;;;5124329;29;20176;-73
2021/04/05 07:09:47;;;;;;;24.97;12.30;;;4.90;99.90;;;;;;5124099;29;20675;-72
2021/04/05 07:12:27;;;;;;;26.70;12.57;;;4.90;99.90;;;;;;5124103;29;20204;-72
2021/04/05 07:15:23;;;;;;;25.80;12.43;;;5.00;99.90;;;;;;5124172;29;20204;-73
2021/04/05 07:18:13;;;;;;;21.73;11.17;;;5.10;99.90;;;;;;5123731;29;20216;-74
2021/04/05 07:20:56;;;;;;;22.50;11.47;;;5.20;99.90;;;;;;5125254;28;20197;-72
2021/04/05 07:24:02;;;;;;;23.03;13.00;;;5.20;99.90;;;;;;5166899;28;20195;-71
2021/04/05 07:26:48;;;;;;;24.53;11.83;;;5.30;99.90;;;;;;5166564;28;20207;-72
2021/04/05 07:29:32;;;;;;;23.57;12.50;;;5.30;99.90;;;;;;5165868;28;20198;-73
2021/04/05 07:36:08;;;;;;;24.57;12.33;;;5.60;99.90;;;;;;5166100;28;20237;-71
2021/04/05 07:39:05;;;;;;;23.50;11.57;;;5.70;99.90;;;;;;5166436;28;20631;-71
2021/04/05 07:41:55;;;;;;;20.10;11.47;;;5.60;99.90;;;;;;5165765;28;20207;-72
2021/04/05 07:45:00;;;;;;;23.37;12.47;;;5.60;99.90;;;;;;5166241;28;20192;-72
2021/04/05 07:47:47;;;;;;;19.53;11.50;;;5.60;99.90;;;;;;5165900;28;20214;-70
2021/04/05 07:50:38;;;;;;;22.70;11.90;;;5.60;99.90;;;;;;5165403;28;20243;-71
2021/04/05 07:53:49;;;;;;;21.27;11.60;;;5.50;99.90;;;;;;5081218;28;20336;-75
2021/04/05 07:56:51;;;;;;;22.60;11.43;;;5.50;99.90;;;;;;5104343;29;20211;-72
2021/04/05 07:59:42;;;;;;;21.40;11.53;;;5.50;99.90;;;;;;5123270;28;20207;-74
2021/04/05 08:06:16;;;;;;;18.80;11.50;;;5.50;99.90;;;;;;5118248;28;20225;-70
2021/04/05 08:08:59;;;;;;;21.73;11.93;;;5.50;99.90;;;;;;5056124;29;20194;-73
2021/04/05 08:11:39;;;;;;;22.00;12.00;;;5.50;99.90;;;;;;5072840;29;20228;-71
2021/04/05 08:14:48;;;;;;;28.17;12.47;;;5.40;99.90;;;;;;5045039;29;20797;-71
2021/04/05 08:17:52;;;;;;;20.83;11.33;;;5.50;99.90;;;;;;5127497;29;20193;-72
2021/04/05 08:20:42;;;;;;;22.73;12.23;;;5.50;99.90;;;;;;5065945;29;20208;-72
2021/04/05 08:23:50;;;;;;;23.97;11.17;;;5.60;99.90;;;;;;5126183;29;20199;-69
2021/04/05 08:26:38;;;;;;;23.93;12.10;;;5.60;99.90;;;;;;5125716;29;20213;-71
2021/04/05 08:29:21;;;;;;;21.23;12.20;;;5.60;99.90;;;;;;5126916;29;20193;-70
2021/04/05 08:35:51;;;;;;;21.87;12.50;;;5.70;99.90;;;;;;5171000;28;20230;-70
2021/04/05 08:38:51;;;;;;;30.47;14.00;;;5.80;99.90;;;;;;5170344;28;20207;-73
2021/04/05 08:41:55;;;;;;;23.47;12.37;;;5.90;99.90;;;;;;5168390;28;20206;-73
2021/04/05 08:44:49;;;;;;;20.23;12.73;;;5.90;99.90;;;;;;5169148;28;20200;-73
2021/04/05 08:47:29;;;;;;;21.90;12.27;;;5.80;99.90;;;;;;5168898;28;20246;-73
2021/04/05 08:50:09;;;;;;;22.10;12.13;;;5.90;99.90;;;;;;5168605;28;20234;-75
2021/04/05 08:52:47;;;;;;;22.93;11.80;;;5.90;99.90;;;;;;5151544;28;20204;-71
2021/04/05 08:55:22;;;;;;;23.07;12.70;;;5.90;99.90;;;;;;5168774;28;20220;-72
2021/04/05 08:58:08;;;;;;;22.63;12.80;;;5.90;99.90;;;;;;5167951;28;20290;-72
2021/04/05 09:00:47;;;;;;;21.47;12.37;;;5.90;99.90;;;;;;5168792;28;20198;-73
2021/04/05 09:03:23;;;;;;;22.87;12.80;;;5.80;99.90;;;;;;5168357;28;20202;-69
2021/04/05 09:05:56;;;;;;;20.13;11.87;;;5.70;99.90;;;;;;5169834;28;20195;-72
2021/04/05 09:08:28;;;;;;;21.77;12.87;;;5.60;99.90;;;;;;5169436;28;20202;-70
2021/04/05 09:11:05;;;;;;;23.03;13.23;;;5.60;99.90;;;;;;5168637;28;20270;-70
2021/04/05 09:13:50;;;;;;;23.43;12.90;;;5.50;99.90;;;;;;5168460;28;20192;-74
2021/04/05 09:20:32;;;;;;;20.30;12.53;;;5.40;99.90;;;;;;5164837;28;20263;-70
2021/04/05 09:23:19;;;;;;;23.00;13.47;;;5.30;99.90;;;;;;5167228;28;20247;-77
2021/04/05 09:26:11;;;;;;;23.07;13.43;;;5.30;99.90;;;;;;5164660;28;20678;-78
2021/04/05 09:29:04;;;;;;;23.03;13.30;;;5.20;99.90;;;;;;5154680;28;20198;-71
2021/04/05 09:32:08;;;;;;;22.57;12.57;;;5.20;99.90;;;;;;5167365;28;20230;-72
2021/04/05 09:34:49;;;;;;;21.57;12.70;;;5.10;99.90;;;;;;5167470;28;20196;-72
2021/04/05 09:37:46;;;;;;;22.53;13.73;;;5.10;99.90;;;;;;5167686;28;20199;-70
2021/04/05 09:40:37;;;;;;;22.77;13.40;;;5.10;99.90;;;;;;5161467;28;20191;-75
2021/04/05 09:43:24;;;;;;;22.17;12.73;;;5.00;99.90;;;;;;5137028;28;20195;-72
2021/04/05 09:46:06;;;;;;;22.23;13.23;;;5.00;99.90;;;;;;5143992;28;20210;-73
2021/04/05 09:48:57;;;;;;;25.38;17.70;;;5.00;99.90;;;;;;5133868;28;20464;-71
2021/04/05 09:51:43;;;;;;;25.03;14.63;;;5.00;99.90;;;;;;5168322;28;20785;-71
2021/04/05 09:54:42;;;;;;;21.20;12.77;;;4.90;99.90;;;;;;5167836;28;20195;-71
2021/04/05 09:57:39;;;;;;;20.43;11.93;;;4.90;99.90;;;;;;5166189;28;20203;-70
2021/04/05 10:00:14;;;;;;;22.07;13.60;;;4.90;99.90;;;;;;5156508;28;20198;-72
2021/04/05 10:06:42;;;;;;;21.50;12.37;;;4.90;99.90;;;;;;5153074;28;20186;-71
2021/04/05 10:09:14;;;;;;;23.33;12.63;;;4.90;99.90;;;;;;5147093;28;20198;-73
2021/04/05 10:11:47;;;;;;;23.67;13.07;;;4.90;99.90;;;;;;5133507;28;20238;-70
2021/04/05 10:14:21;;;;;;;21.17;12.87;;;4.80;99.90;;;;;;5160885;28;20735;-71
2021/04/05 10:16:55;;;;;;;21.93;12.63;;;4.90;99.90;;;;;;5155267;28;20195;-76
2021/04/05 10:19:46;;;;;;;27.23;13.40;;;4.90;99.90;;;;;;5156848;28;20194;-77
2021/04/05 10:22:19;;;;;;;25.10;13.30;;;4.90;99.90;;;;;;5166447;28;20216;-78
2021/04/05 10:24:58;;;;;;;22.13;13.67;;;4.90;99.90;;;;;;5166601;28;20200;-75
2021/04/05 10:27:31;;;;;;;21.13;10.30;;;4.90;99.90;;;;;;5150125;28;20205;-74
2021/04/05 10:30:04;;;;;;;19.70;11.77;;;4.80;99.90;;;;;;5169197;28;20196;-78
2021/04/05 10:32:45;;;;;;;19.87;12.03;;;4.80;99.90;;;;;;5164701;28;20677;-77
2021/04/05 10:35:29;;;;;;;20.23;11.67;;;4.90;99.90;;;;;;5166872;28;20214;-77
2021/04/05 10:38:07;;;;;;;20.07;11.90;;;4.90;99.90;;;;;;5166925;28;20235;-77
2021/04/05 10:40:47;;;;;;;25.37;13.00;;;4.90;99.90;;;;;;5166068;28;20196;-77
2021/04/05 10:43:25;;;;;;;21.57;12.33;;;4.90;99.90;;;;;;5166964;28;20204;-77
2021/04/05 10:46:05;;;;;;;23.13;12.67;;;5.00;99.90;;;;;;5166348;28;20559;-76
2021/04/05 10:48:46;;;;;;;21.90;12.27;;;5.10;99.90;;;;;;5160411;28;20656;-77
2021/04/05 10:51:30;;;;;;;20.00;12.60;;;5.10;99.90;;;;;;5140186;28;20252;-74
2021/04/05 10:54:18;;;;;;;18.27;10.80;;;5.20;99.90;;;;;;5162467;28;20207;-79
2021/04/05 10:57:21;;;;;;;20.73;10.77;;;5.30;99.90;;;;;;5156639;28;20310;-81
2021/04/05 11:00:00;;;;;;;19.03;9.63;;;5.30;99.90;;;;;;5158904;28;20199;-76
2021/04/05 11:06:43;;;;;;;14.07;8.70;;;5.30;99.90;;;;;;5167727;28;20294;-79
2021/04/05 11:09:19;;;;;;;14.30;9.00;;;5.20;99.90;;;;;;5166452;28;20238;-79
2021/04/05 11:11:54;;;;;;;15.73;9.40;;;5.20;99.90;;;;;;5162237;28;20253;-80
2021/04/05 11:14:32;;;;;;;15.93;9.33;;;5.20;99.90;;;;;;5168461;28;20621;-76
2021/04/05 11:17:05;;;;;;;15.30;9.60;;;5.20;99.90;;;;;;5162255;28;20646;-80
2021/04/05 11:23:35;;;;;;;14.70;8.83;;;5.10;99.90;;;;;;5164404;28;20171;-77
2021/04/05 11:26:35;;;;;;;15.57;9.87;;;5.10;99.90;;;;;;5166872;28;20617;-81
2021/04/05 11:29:14;;;;;;;15.43;9.97;;;5.20;99.90;;;;;;5165209;28;20697;-76
2021/04/05 11:31:48;;;;;;;19.83;9.57;;;5.20;99.90;;;;;;5166679;28;20242;-75
2021/04/05 11:34:34;;;;;;;16.37;9.40;;;5.20;99.90;;;;;;5167494;28;20192;-77
2021/04/05 11:37:12;;;;;;;16.20;9.03;;;5.20;99.90;;;;;;5149742;28;20195;-77
2021/04/05 11:39:58;;;;;;;14.23;9.67;;;5.20;99.90;;;;;;5165512;28;20610;-76
2021/04/05 11:42:37;;;;;;;11.13;6.70;;;5.20;99.90;;;;;;5163645;28;20262;-76
2021/04/05 11:45:33;;;;;;;7.03;4.47;;;5.10;99.90;;;;;;5162936;28;20266;-76
2021/04/05 11:52:21;;;;;;;5.57;2.47;;;4.50;99.90;;;;;;5168864;28;20611;-81
2021/04/05 11:54:59;;;;;;;4.27;2.77;;;4.10;99.90;;;;;;5167625;28;20304;-79
2021/04/05 11:57:33;;;;;;;5.73;3.20;;;3.90;99.90;;;;;;5151873;28;20199;-76
2021/04/05 12:00:10;;;;;;;5.43;3.33;;;3.70;99.90;;;;;;5169653;28;20198;-77
2021/04/05 12:07:07;;;;;;;8.87;4.20;;;3.60;99.90;;;;;;5169465;28;20642;-73
2021/04/05 12:10:16;;;;;;;10.60;5.10;;;3.70;99.90;;;;;;5163073;28;20211;-75
2021/04/05 12:13:03;;;;;;;7.60;4.07;;;3.70;99.90;;;;;;5169106;28;20195;-78
2021/04/05 12:15:36;;;;;;;8.37;4.40;;;3.80;99.90;;;;;;5169720;28;20188;-76
2021/04/05 12:18:08;;;;;;;9.17;5.00;;;3.90;99.90;;;;;;5169349;28;20204;-76
2021/04/05 12:20:40;;;;;;;10.30;5.60;;;4.00;99.90;;;;;;5169520;28;20199;-76
2021/04/05 12:23:15;;;;;;;10.50;5.63;;;4.10;99.90;;;;;;5168907;28;20210;-74
2021/04/05 12:25:51;;;;;;;10.13;5.33;;;4.20;99.90;;;;;;5169496;28;20191;-74
2021/04/05 12:28:41;;;;;;;11.43;5.87;;;4.30;99.90;;;;;;5169047;28;20199;-73
2021/04/05 12:31:13;;;;;;;10.43;6.03;;;4.50;99.90;;;;;;5168596;28;20653;-75
2021/04/05 12:34:06;;;;;;;9.27;5.93;;;4.70;99.90;;;;;;5172563;28;20226;-76
2021/04/05 12:36:40;;;;;;;9.20;5.27;;;5.00;99.90;;;;;;5170300;28;20250;-74
2021/04/05 12:39:12;;;;;;;7.70;4.73;;;5.20;99.90;;;;;;5169634;28;20196;-74
2021/04/05 12:41:48;;;;;;;8.27;5.03;;;5.20;99.90;;;;;;5169241;28;20199;-73
2021/04/05 12:44:33;;;;;;;3.53;2.10;;;5.20;99.90;;;;;;5169528;28;20203;-77
2021/04/05 12:47:09;;;;;;;3.70;1.80;;;4.20;99.90;;;;;;5169191;28;20246;-75
2021/04/05 12:49:45;;;;;;;1.20;0.87;;;3.20;99.90;;;;;;5169125;28;20281;-74
2021/04/05 12:52:20;;;;;;;1.13;0.80;;;2.70;99.90;;;;;;5168879;28;20293;-77
2021/04/05 12:54:53;;;;;;;2.33;1.20;;;2.40;99.90;;;;;;5168822;28;20201;-75
2021/04/05 12:57:27;;;;;;;3.90;2.10;;;2.10;99.90;;;;;;5168954;28;20202;-75
2021/04/05 13:00:00;;;;;;;5.60;2.70;;;2.10;99.90;;;;;;5168130;28;20196;-77
2021/04/05 13:02:34;;;;;;;3.80;2.43;;;1.90;99.90;;;;;;5145748;28;20211;-73
2021/04/05 13:05:20;;;;;;;5.63;2.40;;;2.00;99.90;;;;;;5172569;28;20222;-73
2021/04/05 13:08:15;;;;;;;5.30;2.63;;;2.10;99.90;;;;;;5172291;28;20192;-73
2021/04/05 13:10:55;;;;;;;3.63;2.83;;;2.20;99.90;;;;;;5170060;28;20227;-75
2021/04/05 13:13:31;;;;;;;7.57;4.10;;;2.30;99.90;;;;;;5170520;28;20238;-76
2021/04/05 13:16:31;;;;;;;7.07;3.33;;;2.30;99.90;;;;;;5170648;28;20187;-80
2021/04/05 13:23:04;;;;;;;4.00;2.20;;;2.30;99.90;;;;;;5169138;28;20543;-74
2021/04/05 13:25:51;;;;;;;4.87;1.87;;;2.40;99.90;;;;;;5169046;28;20187;-77
2021/04/05 13:28:27;;;;;;;2.93;1.53;;;2.40;99.90;;;;;;5169904;28;20211;-75
2021/04/05 13:31:05;;;;;;;2.60;1.67;;;2.30;99.90;;;;;;5168762;28;20223;-77
2021/04/05 13:33:41;;;;;;;2.17;1.23;;;2.20;99.90;;;;;;5168300;28;20207;-77
2021/04/05 13:36:16;;;;;;;3.57;1.30;;;2.00;99.90;;;;;;5168324;28;20196;-76
2021/04/05 13:39:03;;;;;;;2.73;1.30;;;1.90;99.90;;;;;;5168753;28;20195;-78
2021/04/05 13:41:38;;;;;;;3.57;1.43;;;1.80;99.90;;;;;;5169069;28;20191;-78
2021/04/05 13:44:24;;;;;;;3.80;1.50;;;1.80;99.90;;;;;;5170867;28;20191;-77
2021/04/05 13:46:59;;;;;;;4.37;2.00;;;1.90;99.90;;;;;;5151745;28;20564;-77
2021/04/05 13:49:47;;;;;;;3.33;1.80;;;1.90;99.90;;;;;;5179971;28;20218;-81
2021/04/05 13:52:20;;;;;;;5.37;2.23;;;2.10;99.90;;;;;;5175097;28;20600;-82
2021/04/05 13:54:56;;;;;;;7.13;2.90;;;2.20;99.90;;;;;;5173549;28;20198;-80
2021/04/05 13:57:50;;;;;;;5.73;2.30;;;2.40;99.90;;;;;;5174411;28;20195;-81
2021/04/05 14:00:21;;;;;;;2.53;1.30;;;2.50;99.90;;;;;;5170418;28;20600;-79
2021/04/05 14:03:00;;;;;;;4.57;1.30;;;2.30;99.90;;;;;;5169078;28;20218;-73
2021/04/05 14:05:38;;;;;;;2.60;1.30;;;2.20;99.90;;;;;;5168099;28;20207;-78
2021/04/05 14:08:16;;;;;;;2.30;1.10;;;2.20;99.90;;;;;;5150882;28;20202;-78
2021/04/05 14:11:12;;;;;;;3.47;1.17;;;2.30;99.90;;;;;;5168498;28;20237;-80
2021/04/05 14:13:44;;;;;;;3.97;1.30;;;2.50;99.90;;;;;;5167837;28;20200;-79
2021/04/05 14:16:21;;;;;;;3.67;1.33;;;2.60;99.90;;;;;;5151542;28;20623;-79
2021/04/05 14:23:11;;;;;;;3.33;1.20;;;2.90;99.90;;;;;;5167504;28;20198;-81
2021/04/05 14:25:51;;;;;;;2.63;1.17;;;3.10;99.90;;;;;;5167609;28;20192;-77
2021/04/05 14:28:33;;;;;;;3.77;1.50;;;3.30;99.90;;;;;;5167929;28;20662;-76
2021/04/05 14:31:11;;;;;;;4.80;1.17;;;3.50;99.90;;;;;;5168690;28;20228;-76
2021/04/05 14:33:56;;;;;;;5.60;1.90;;;3.60;99.90;;;;;;5169446;28;20234;-76
2021/04/05 14:36:30;;;;;;;5.80;1.80;;;3.60;99.90;;;;;;5168749;28;20202;-75
2021/04/05 14:39:10;;;;;;;8.10;2.00;;;3.60;99.90;;;;;;5167645;28;20198;-75
2021/04/05 14:41:55;;;;;;;5.53;2.47;;;3.60;99.90;;;;;;5167584;28;20650;-78
2021/04/05 14:44:42;;;;;;;4.93;1.93;;;3.60;99.90;;;;;;5167421;28;20210;-77
2021/04/05 14:47:16;;;;;;;5.60;1.70;;;3.60;99.90;;;;;;5166982;28;20578;-78
2021/04/05 14:50:07;;;;;;;4.40;1.47;;;3.50;99.90;;;;;;5150038;28;20274;-79
2021/04/05 14:52:43;;;;;;;6.37;1.70;;;3.40;99.90;;;;;;5166839;28;20243;-75
2021/04/05 14:55:17;;;;;;;5.97;1.70;;;3.30;99.90;;;;;;5167341;28;20192;-78
2021/04/05 14:57:51;;;;;;;6.70;1.60;;;3.30;99.90;;;;;;5167844;28;20206;-78
2021/04/05 15:00:30;;;;;;;5.10;2.20;;;3.30;99.90;;;;;;5167797;28;20192;-78
2021/04/05 15:03:09;;;;;;;6.60;2.30;;;3.40;99.90;;;;;;5150546;28;20665;-73
2021/04/05 15:05:57;;;;;;;10.43;3.27;;;3.40;99.90;;;;;;5167384;28;20199;-73
2021/04/05 15:08:45;;;;;;;10.10;2.37;;;3.50;99.90;;;;;;5167236;28;20202;-73